Beech Grove, Texas
Current Conditions -  °F | °C
As of 4:55 AM on Friday 19 Dec 2014 (Local Time) from KJAS Reporting Station
Light Rain Light Rain  
Wind Chill: 51°   Ceiling: 4300
Heat Index: 51°   Visibility: 7mi
Dew Point: 50°   Wind: 8mph
Humidity: 97%   Direction: 60°ENE
Pressure: 30.08"   Gusts: NA
Location:  30.9529°N, 94.0707°W
Report Text: KJAS 191055Z AUTO 06007KT 7SM -RA SCT034 BKN043 BKN085 11/10 A3008 RMK AO2 P0025 T01060101
Loading
Personal Weather Stations






























Interactive Weather Map New forecast layout! Learn more

10-Day Weather Forecast

Advertisements
Track Severe Weather on mobile